Time;durP1;ratioP1;P1;durP2;ratioP2;P2;SDS_P1;SDS_P2;PMS_P1;PMS_P2;Temp;Humidity;BMP_temperature;BMP_pressure;BME280_temperature;BME280_humidity;BME280_pressure;Samples;Min_cycle;Max_cycle;Signal;HPM_P1;HPM_P2
2023/06/15 00:00:09;;;;;;;7.77;7.13;;;19.10;90.30;;;;;;4956639;28;21011;-60
2023/06/15 00:02:35;;;;;;;8.00;7.47;;;19.10;90.40;;;;;;4956158;29;20416;-59
2023/06/15 00:05:00;;;;;;;7.47;6.77;;;19.10;90.90;;;;;;4956988;28;20766;-59
2023/06/15 00:07:26;;;;;;;12.93;8.07;;;19.10;90.80;;;;;;4956994;29;20423;-60
2023/06/15 00:09:52;;;;;;;7.40;6.70;;;19.10;91.00;;;;;;4955071;28;20177;-59
2023/06/15 00:12:18;;;;;;;10.37;6.63;;;19.10;91.20;;;;;;4954398;29;20186;-60
2023/06/15 00:14:43;;;;;;;8.03;7.33;;;19.10;91.10;;;;;;4956046;29;20212;-59
2023/06/15 00:17:11;;;;;;;7.20;6.60;;;19.00;91.00;;;;;;4955556;29;20216;-60
2023/06/15 00:19:37;;;;;;;7.03;6.63;;;19.00;91.10;;;;;;4955907;28;20212;-59
2023/06/15 00:22:04;;;;;;;7.40;6.90;;;19.00;91.30;;;;;;4956708;28;20839;-60
2023/06/15 00:24:30;;;;;;;7.53;6.93;;;19.00;91.50;;;;;;4956218;28;20441;-59
2023/06/15 00:26:55;;;;;;;7.10;6.60;;;19.00;91.70;;;;;;4956062;29;20440;-59
2023/06/15 00:29:21;;;;;;;7.90;7.23;;;18.90;91.60;;;;;;4956889;29;20656;-60
2023/06/15 00:31:47;;;;;;;7.90;7.10;;;18.90;91.50;;;;;;4955149;29;20174;-59
2023/06/15 00:34:13;;;;;;;7.13;6.63;;;18.80;91.90;;;;;;4956544;29;20177;-59
2023/06/15 00:36:39;;;;;;;7.60;7.10;;;18.80;92.10;;;;;;4954568;29;20424;-59
2023/06/15 00:39:05;;;;;;;7.47;6.97;;;18.80;92.10;;;;;;4954405;29;20216;-59
2023/06/15 00:41:40;;;;;;;7.00;6.60;;;18.80;92.10;;;;;;4955212;29;20568;-59
2023/06/15 00:44:06;;;;;;;7.50;7.00;;;18.80;92.30;;;;;;4955783;28;20471;-60
2023/06/15 00:46:32;;;;;;;7.90;7.30;;;18.80;92.40;;;;;;4956079;28;20397;-59
2023/06/15 00:48:58;;;;;;;7.40;6.90;;;18.70;92.40;;;;;;4954116;28;20189;-59
2023/06/15 00:51:24;;;;;;;8.10;7.57;;;18.70;92.30;;;;;;4956139;29;20423;-60
2023/06/15 00:53:50;;;;;;;8.40;7.80;;;18.70;92.20;;;;;;4955076;28;20521;-59
2023/06/15 00:56:17;;;;;;;8.33;7.60;;;18.70;92.10;;;;;;4956107;28;20177;-60
2023/06/15 00:58:44;;;;;;;8.00;7.30;;;18.60;92.50;;;;;;4955463;28;20768;-59
2023/06/15 01:01:10;;;;;;;8.47;7.77;;;18.60;92.80;;;;;;4955976;28;20849;-59
2023/06/15 01:03:36;;;;;;;8.03;7.53;;;18.60;92.70;;;;;;4955268;28;20409;-59
2023/06/15 01:06:12;;;;;;;7.87;7.37;;;18.60;92.80;;;;;;4956255;29;20409;-59
2023/06/15 01:08:47;;;;;;;8.27;7.70;;;18.60;92.90;;;;;;4955244;28;20401;-59
2023/06/15 01:11:14;;;;;;;7.93;7.43;;;18.60;93.00;;;;;;4955459;28;20436;-59
2023/06/15 01:13:42;;;;;;;7.70;7.20;;;18.60;93.10;;;;;;4945340;28;20836;-59
2023/06/15 01:16:16;;;;;;;7.87;7.30;;;18.50;93.00;;;;;;4936594;29;20500;-59
2023/06/15 01:18:46;;;;;;;7.83;7.23;;;18.50;93.10;;;;;;4935783;29;20402;-59
2023/06/15 01:21:16;;;;;;;8.07;7.47;;;18.50;93.10;;;;;;4936468;29;20460;-60
2023/06/15 01:23:50;;;;;;;8.00;7.40;;;18.50;93.10;;;;;;4935712;29;20420;-59
2023/06/15 01:26:18;;;;;;;8.03;7.43;;;18.50;93.40;;;;;;4936628;29;20405;-60
2023/06/15 01:28:49;;;;;;;8.00;7.40;;;18.50;93.50;;;;;;4951284;29;20424;-59
2023/06/15 01:31:16;;;;;;;8.30;7.70;;;18.50;93.40;;;;;;4955468;28;20777;-60
2023/06/15 01:33:51;;;;;;;8.00;7.50;;;18.40;93.40;;;;;;4953852;29;20425;-59
2023/06/15 01:36:18;;;;;;;8.23;7.73;;;18.40;93.40;;;;;;4955110;29;20903;-60
2023/06/15 01:38:46;;;;;;;7.97;7.37;;;18.40;93.40;;;;;;4954399;29;20496;-59
2023/06/15 01:41:13;;;;;;;7.83;7.33;;;18.30;93.50;;;;;;4953172;29;20433;-60
2023/06/15 01:43:40;;;;;;;8.30;7.60;;;18.30;93.60;;;;;;4952965;29;20508;-59
2023/06/15 01:46:06;;;;;;;8.63;7.93;;;18.30;93.60;;;;;;4955318;29;20797;-60
2023/06/15 01:48:32;;;;;;;8.10;7.50;;;18.30;93.50;;;;;;4955158;29;20409;-60
2023/06/15 01:50:59;;;;;;;7.60;7.00;;;18.30;93.50;;;;;;4952659;29;20429;-60
2023/06/15 01:53:25;;;;;;;7.93;7.33;;;18.30;93.70;;;;;;4955088;28;20491;-60
2023/06/15 01:55:51;;;;;;;8.17;7.57;;;18.30;93.70;;;;;;4954155;29;20420;-60
2023/06/15 01:58:17;;;;;;;8.00;7.50;;;18.20;93.60;;;;;;4953861;29;20196;-60
2023/06/15 02:00:44;;;;;;;7.87;7.37;;;18.20;93.70;;;;;;4953384;29;20468;-59
2023/06/15 02:03:11;;;;;;;7.33;6.70;;;18.20;94.00;;;;;;4954905;28;20559;-60
2023/06/15 02:05:39;;;;;;;7.90;7.30;;;18.20;93.90;;;;;;4953707;28;20773;-59
2023/06/15 02:08:06;;;;;;;8.00;7.50;;;18.20;93.70;;;;;;4954788;28;20487;-60
2023/06/15 02:10:32;;;;;;;8.43;7.80;;;18.10;93.60;;;;;;4953866;29;20432;-60
2023/06/15 02:12:58;;;;;;;7.73;7.23;;;18.10;93.80;;;;;;4954061;28;20409;-59
2023/06/15 02:15:23;;;;;;;8.57;7.87;;;18.10;94.10;;;;;;4954579;28;20768;-60
2023/06/15 02:17:59;;;;;;;7.97;7.47;;;18.00;94.10;;;;;;4953851;29;20177;-59
2023/06/15 02:20:25;;;;;;;8.03;7.33;;;18.00;94.00;;;;;;4954575;28;20188;-59
2023/06/15 02:22:52;;;;;;;8.27;7.47;;;18.00;93.90;;;;;;4951816;29;20791;-59
2023/06/15 02:25:21;;;;;;;8.13;7.50;;;17.90;94.10;;;;;;4935360;29;20414;-60
2023/06/15 02:27:47;;;;;;;7.40;6.90;;;17.90;94.40;;;;;;4934577;29;20414;-59
2023/06/15 02:30:12;;;;;;;7.57;7.07;;;18.00;94.40;;;;;;4935404;29;20412;-60
2023/06/15 02:32:42;;;;;;;8.23;7.53;;;17.90;94.40;;;;;;4950655;29;20205;-59
2023/06/15 02:35:10;;;;;;;8.70;8.10;;;17.90;94.20;;;;;;4953487;28;20429;-60
2023/06/15 02:37:36;;;;;;;8.00;7.40;;;17.90;94.20;;;;;;4954349;28;20409;-59
2023/06/15 02:40:06;;;;;;;7.90;7.40;;;17.90;94.20;;;;;;4949511;28;20472;-59
2023/06/15 02:42:33;;;;;;;8.97;8.23;;;17.90;94.60;;;;;;4951138;28;20472;-59
2023/06/15 02:44:59;;;;;;;7.60;6.90;;;17.80;94.50;;;;;;4953111;28;20460;-59
2023/06/15 02:47:25;;;;;;;8.10;7.60;;;17.80;95.10;;;;;;4954366;28;20973;-60
2023/06/15 02:49:51;;;;;;;8.63;8.00;;;17.80;95.00;;;;;;4953366;29;20449;-59
2023/06/15 02:52:16;;;;;;;8.73;8.00;;;17.80;95.20;;;;;;4954305;28;20177;-59
2023/06/15 02:54:42;;;;;;;7.80;7.30;;;17.80;95.00;;;;;;4953440;28;20169;-58
2023/06/15 02:57:08;;;;;;;8.57;7.30;;;17.80;95.20;;;;;;4953079;29;20222;-60
2023/06/15 02:59:40;;;;;;;7.63;7.13;;;17.70;95.10;;;;;;4953800;28;20936;-59
2023/06/15 03:02:06;;;;;;;9.33;7.97;;;17.70;95.20;;;;;;4953850;28;20480;-59
2023/06/15 03:04:37;;;;;;;8.60;7.70;;;17.60;94.90;;;;;;4954107;28;20504;-59
2023/06/15 03:07:03;;;;;;;9.53;8.83;;;17.60;94.90;;;;;;4952473;28;20424;-59
2023/06/15 03:09:29;;;;;;;9.53;8.67;;;17.50;95.70;;;;;;4954110;28;20425;-61
2023/06/15 03:11:55;;;;;;;8.50;7.90;;;17.50;96.00;;;;;;4951974;29;20428;-59
2023/06/15 03:14:20;;;;;;;9.30;8.50;;;17.50;96.00;;;;;;4953597;29;20185;-59
2023/06/15 03:16:47;;;;;;;8.83;8.23;;;17.50;96.30;;;;;;4954697;28;20180;-59
2023/06/15 03:19:16;;;;;;;9.63;8.83;;;17.50;96.50;;;;;;4957215;28;20201;-59
2023/06/15 03:21:46;;;;;;;10.10;9.10;;;17.50;96.60;;;;;;4957324;28;20412;-59
2023/06/15 03:24:13;;;;;;;9.40;8.50;;;17.50;96.70;;;;;;4957807;29;20437;-59
2023/06/15 03:26:43;;;;;;;10.03;9.03;;;17.50;96.60;;;;;;4957655;29;20499;-59
2023/06/15 03:29:09;;;;;;;9.20;8.50;;;17.60;96.70;;;;;;4957742;28;20413;-59
2023/06/15 03:31:40;;;;;;;9.73;8.87;;;17.50;96.40;;;;;;4956667;29;20935;-58
2023/06/15 03:34:07;;;;;;;9.40;8.60;;;17.40;96.50;;;;;;4956597;28;20637;-59
2023/06/15 03:36:33;;;;;;;10.13;9.17;;;17.20;96.90;;;;;;4957357;28;20416;-59
2023/06/15 03:38:58;;;;;;;9.17;8.47;;;17.20;97.20;;;;;;4955111;29;20468;-59
2023/06/15 03:41:27;;;;;;;10.70;9.53;;;17.20;97.30;;;;;;4957350;28;20181;-59
2023/06/15 03:43:53;;;;;;;8.50;7.70;;;17.20;97.20;;;;;;4956128;28;20584;-58
2023/06/15 03:46:19;;;;;;;8.07;7.27;;;17.20;97.20;;;;;;4957461;29;20402;-59
2023/06/15 03:48:45;;;;;;;12.80;11.80;;;17.10;97.10;;;;;;4956736;29;20173;-59
2023/06/15 03:51:12;;;;;;;8.60;7.83;;;17.10;97.50;;;;;;4956348;29;20184;-59
2023/06/15 03:53:41;;;;;;;7.67;7.07;;;17.00;97.30;;;;;;4956565;28;20185;-59
2023/06/15 03:56:09;;;;;;;6.77;6.27;;;17.10;97.50;;;;;;4955644;29;20416;-58
2023/06/15 03:58:35;;;;;;;11.43;10.67;;;17.20;97.80;;;;;;4957116;29;20404;-59
2023/06/15 04:01:04;;;;;;;7.30;6.40;;;17.20;97.60;;;;;;4954129;28;20980;-59
2023/06/15 04:03:34;;;;;;;9.73;7.73;;;17.30;97.30;;;;;;4955562;28;20272;-59
2023/06/15 04:06:04;;;;;;;9.20;8.50;;;17.30;97.40;;;;;;4956578;28;20761;-59
2023/06/15 04:08:31;;;;;;;8.00;7.40;;;17.40;97.50;;;;;;4957073;28;20414;-59
2023/06/15 04:10:57;;;;;;;9.43;8.73;;;17.40;97.70;;;;;;4956023;28;20462;-59
2023/06/15 04:13:23;;;;;;;8.27;7.63;;;17.50;98.70;;;;;;4956877;28;20417;-59
2023/06/15 04:15:50;;;;;;;8.97;8.27;;;17.50;97.50;;;;;;4954234;29;20200;-59
2023/06/15 04:18:16;;;;;;;8.40;7.80;;;17.60;96.90;;;;;;4956779;28;20428;-59
2023/06/15 04:20:42;;;;;;;8.27;7.57;;;17.50;97.00;;;;;;4939457;29;20551;-59
2023/06/15 04:23:08;;;;;;;8.50;7.90;;;17.60;98.60;;;;;;4955927;29;20522;-59
2023/06/15 04:25:35;;;;;;;9.40;8.50;;;17.60;97.60;;;;;;4956681;28;20173;-59
2023/06/15 04:28:02;;;;;;;9.07;8.47;;;17.70;97.50;;;;;;4954778;28;20193;-59
2023/06/15 04:30:29;;;;;;;8.90;8.20;;;17.70;97.40;;;;;;4956221;28;20424;-59
2023/06/15 04:32:59;;;;;;;7.60;7.00;;;17.70;97.20;;;;;;4955030;28;20824;-59
2023/06/15 04:35:29;;;;;;;8.10;7.40;;;17.70;97.00;;;;;;4956395;28;20416;-59
2023/06/15 04:37:58;;;;;;;10.23;8.37;;;17.70;97.10;;;;;;4954511;29;20536;-59
2023/06/15 04:40:26;;;;;;;7.60;7.03;;;17.80;97.60;;;;;;4949639;28;20468;-59
2023/06/15 04:42:57;;;;;;;7.53;6.93;;;17.80;97.80;;;;;;4947138;29;20444;-59
2023/06/15 04:45:23;;;;;;;7.70;7.00;;;17.80;97.90;;;;;;4956655;28;20469;-59
2023/06/15 04:47:49;;;;;;;11.27;10.50;;;17.90;97.80;;;;;;4955939;29;20475;-59
2023/06/15 04:50:15;;;;;;;8.80;7.33;;;17.90;97.60;;;;;;4956881;28;20428;-59
2023/06/15 04:52:41;;;;;;;7.87;7.33;;;17.90;97.10;;;;;;4956342;28;20173;-59
2023/06/15 04:55:07;;;;;;;9.63;8.97;;;17.90;97.10;;;;;;4955956;29;20260;-59
2023/06/15 04:57:33;;;;;;;12.73;10.00;;;18.00;97.20;;;;;;4956521;28;20173;-59
2023/06/15 05:00:00;;;;;;;10.80;9.90;;;18.00;96.80;;;;;;4955547;28;21060;-59
2023/06/15 05:02:25;;;;;;;12.13;10.10;;;18.00;96.40;;;;;;4956369;28;20416;-59
2023/06/15 05:04:51;;;;;;;9.20;8.30;;;18.10;96.40;;;;;;4955691;28;20772;-59
2023/06/15 05:07:17;;;;;;;9.60;8.90;;;18.10;96.20;;;;;;4956409;28;20204;-59
2023/06/15 05:09:43;;;;;;;8.80;8.10;;;18.20;96.00;;;;;;4956240;28;20177;-59
2023/06/15 05:12:09;;;;;;;8.97;8.20;;;18.20;95.80;;;;;;4954772;29;20185;-59
2023/06/15 05:14:35;;;;;;;9.83;9.00;;;18.30;96.40;;;;;;4955039;29;20232;-59
2023/06/15 05:17:03;;;;;;;8.70;8.10;;;18.30;96.80;;;;;;4955529;29;20407;-59
2023/06/15 05:19:30;;;;;;;9.13;8.33;;;18.40;97.00;;;;;;4955946;28;20228;-59
2023/06/15 05:22:01;;;;;;;8.30;7.60;;;18.40;96.50;;;;;;4955057;29;20412;-59
2023/06/15 05:24:27;;;;;;;8.00;7.40;;;18.40;96.40;;;;;;4955784;28;20781;-59
2023/06/15 05:26:53;;;;;;;11.67;10.50;;;18.50;96.60;;;;;;4955328;29;20417;-59
2023/06/15 05:29:22;;;;;;;10.30;9.50;;;18.50;96.50;;;;;;4956082;28;20416;-59
2023/06/15 05:31:50;;;;;;;8.53;7.83;;;18.50;95.70;;;;;;4955195;28;20464;-59
2023/06/15 05:34:16;;;;;;;7.53;6.93;;;18.60;95.90;;;;;;4955712;28;20413;-59
2023/06/15 05:36:43;;;;;;;11.37;10.27;;;18.60;96.20;;;;;;4955651;28;20496;-59
2023/06/15 05:39:09;;;;;;;8.07;7.47;;;18.70;96.60;;;;;;4937432;29;20500;-59
2023/06/15 05:41:35;;;;;;;9.10;8.40;;;18.70;96.90;;;;;;4955726;28;20409;-59
2023/06/15 05:44:01;;;;;;;16.20;11.20;;;18.80;96.90;;;;;;4953751;29;20433;-59
2023/06/15 05:46:27;;;;;;;9.10;8.40;;;18.80;96.90;;;;;;4955722;28;20179;-59
2023/06/15 05:48:53;;;;;;;11.00;10.10;;;18.90;97.20;;;;;;4954961;29;20404;-59
2023/06/15 05:51:19;;;;;;;9.97;9.20;;;19.00;97.40;;;;;;4955440;28;20779;-59
2023/06/15 05:53:45;;;;;;;8.93;8.30;;;19.00;96.80;;;;;;4955084;29;20177;-59
2023/06/15 05:56:11;;;;;;;10.60;9.50;;;19.10;97.00;;;;;;4955061;29;20401;-59
2023/06/15 05:58:38;;;;;;;11.50;10.70;;;19.10;96.50;;;;;;4955273;29;20173;-59
2023/06/15 06:01:04;;;;;;;10.77;9.77;;;19.20;96.30;;;;;;4954720;28;20232;-59
2023/06/15 06:03:30;;;;;;;9.57;8.80;;;19.20;95.70;;;;;;4955229;29;20514;-59
2023/06/15 06:05:56;;;;;;;11.00;10.00;;;19.30;95.70;;;;;;4954502;29;20432;-59
2023/06/15 06:08:23;;;;;;;14.60;9.73;;;19.30;95.50;;;;;;4954864;28;20877;-59
2023/06/15 06:10:49;;;;;;;9.13;8.37;;;19.40;94.70;;;;;;4954480;28;20642;-59
2023/06/15 06:13:15;;;;;;;9.27;8.57;;;19.50;94.70;;;;;;4953093;28;20437;-59
2023/06/15 06:15:41;;;;;;;10.87;10.07;;;19.60;94.90;;;;;;4953487;29;20944;-59
2023/06/15 06:18:07;;;;;;;10.37;9.57;;;19.60;95.00;;;;;;4950066;29;20170;-59
2023/06/15 06:20:32;;;;;;;11.20;10.30;;;19.70;95.00;;;;;;4943965;29;20620;-59
2023/06/15 06:22:58;;;;;;;10.47;9.47;;;19.70;94.80;;;;;;4953280;29;20634;-59
2023/06/15 06:25:24;;;;;;;8.90;8.00;;;19.80;94.70;;;;;;4953640;29;20235;-59
2023/06/15 06:27:50;;;;;;;9.40;8.70;;;19.90;94.10;;;;;;4949462;28;20190;-59
2023/06/15 06:30:16;;;;;;;9.07;8.37;;;20.00;94.10;;;;;;4952384;29;20436;-59
2023/06/15 06:32:41;;;;;;;9.10;8.40;;;20.00;94.50;;;;;;4954711;28;20181;-59
2023/06/15 06:35:07;;;;;;;9.00;7.87;;;20.10;94.60;;;;;;4954128;29;20705;-59
2023/06/15 06:37:33;;;;;;;9.10;8.40;;;20.20;94.20;;;;;;4954738;29;20183;-59
2023/06/15 06:39:59;;;;;;;11.70;10.90;;;20.30;93.90;;;;;;4953692;29;20196;-59
2023/06/15 06:42:25;;;;;;;10.33;9.43;;;20.30;94.10;;;;;;4951812;29;20185;-61
2023/06/15 06:44:52;;;;;;;11.47;10.37;;;20.60;98.50;;;;;;4953045;28;20552;-61
2023/06/15 06:47:18;;;;;;;9.90;8.90;;;20.80;97.30;;;;;;4951282;28;20495;-60
2023/06/15 06:49:43;;;;;;;12.10;10.90;;;21.00;95.10;;;;;;4953352;29;20924;-60
2023/06/15 06:52:09;;;;;;;12.23;11.23;;;21.20;94.30;;;;;;4951602;29;20189;-60
2023/06/15 06:54:35;;;;;;;9.00;8.30;;;21.50;94.50;;;;;;4952991;29;20629;-64
2023/06/15 06:57:03;;;;;;;15.50;13.90;;;21.70;94.90;;;;;;4952327;28;20184;-63
2023/06/15 06:59:28;;;;;;;15.77;14.20;;;21.90;93.00;;;;;;4953928;28;20348;-64
2023/06/15 07:01:54;;;;;;;19.57;13.80;;;21.90;91.50;;;;;;4953957;28;20499;-63
2023/06/15 07:04:20;;;;;;;20.60;13.70;;;21.90;91.50;;;;;;4953708;28;20529;-64
2023/06/15 07:06:46;;;;;;;13.47;12.07;;;22.00;91.60;;;;;;4940570;29;20173;-63
2023/06/15 07:09:11;;;;;;;15.50;13.70;;;22.00;91.50;;;;;;4935638;29;20513;-63
2023/06/15 07:11:37;;;;;;;12.90;11.60;;;22.00;91.30;;;;;;4953569;29;20613;-63
2023/06/15 07:14:03;;;;;;;17.37;12.23;;;22.10;91.20;;;;;;4935142;29;20203;-63
2023/06/15 07:16:30;;;;;;;14.90;13.40;;;22.20;91.50;;;;;;4934324;29;20436;-64
2023/06/15 07:18:57;;;;;;;16.57;14.97;;;22.20;91.70;;;;;;4934687;29;20170;-63
2023/06/15 07:21:22;;;;;;;14.13;12.83;;;22.20;91.60;;;;;;4934915;29;20810;-63
2023/06/15 07:23:48;;;;;;;14.90;13.53;;;22.30;91.60;;;;;;4942386;29;20420;-63
2023/06/15 07:26:14;;;;;;;15.80;14.00;;;22.40;91.70;;;;;;4953204;29;20536;-63
2023/06/15 07:28:40;;;;;;;12.50;11.50;;;22.40;90.60;;;;;;4954325;28;20617;-64
2023/06/15 07:31:06;;;;;;;14.20;12.70;;;22.50;90.30;;;;;;4953755;28;20423;-63
2023/06/15 07:33:31;;;;;;;13.10;11.90;;;22.60;88.10;;;;;;4954367;28;20173;-64
2023/06/15 07:35:57;;;;;;;10.47;9.53;;;22.70;87.80;;;;;;4953620;29;20177;-63
2023/06/15 07:38:23;;;;;;;11.70;10.50;;;22.80;86.70;;;;;;4954132;29;20173;-56
2023/06/15 07:40:49;;;;;;;10.63;9.53;;;22.90;84.70;;;;;;4948718;29;20216;-53
2023/06/15 07:43:15;;;;;;;10.40;8.20;;;23.10;83.70;;;;;;4953342;28;20181;-51
2023/06/15 07:45:44;;;;;;;11.10;10.40;;;23.20;85.20;;;;;;4952941;28;20232;-53
2023/06/15 07:48:11;;;;;;;10.50;9.57;;;23.30;84.20;;;;;;4945994;29;20782;-52
2023/06/15 07:50:38;;;;;;;9.73;8.93;;;23.40;83.70;;;;;;4953636;28;20491;-49
2023/06/15 07:53:05;;;;;;;9.87;9.07;;;23.50;81.20;;;;;;4953403;28;20516;-52
2023/06/15 07:55:30;;;;;;;9.20;8.37;;;23.60;80.20;;;;;;4953117;28;20952;-52
2023/06/15 07:57:56;;;;;;;9.40;8.47;;;23.70;79.80;;;;;;4953892;29;20431;-60
2023/06/15 08:00:22;;;;;;;8.90;7.97;;;23.90;78.50;;;;;;4952684;29;20267;-52
2023/06/15 08:02:51;;;;;;;9.77;8.80;;;24.00;79.20;;;;;;4954248;28;20833;-51
2023/06/15 08:05:17;;;;;;;8.30;7.57;;;24.20;78.40;;;;;;4956861;29;20436;-51
2023/06/15 08:07:43;;;;;;;8.50;7.73;;;24.30;75.40;;;;;;4957336;28;20408;-53
2023/06/15 08:10:09;;;;;;;8.40;7.70;;;24.30;73.30;;;;;;4956626;29;20208;-51
2023/06/15 08:12:35;;;;;;;7.97;7.50;;;24.40;72.50;;;;;;4957416;28;20210;-51
2023/06/15 08:15:01;;;;;;;9.47;8.50;;;24.50;72.30;;;;;;4955335;29;20957;-51
2023/06/15 08:17:27;;;;;;;9.70;9.00;;;24.60;70.50;;;;;;4957429;29;20184;-52
2023/06/15 08:19:53;;;;;;;9.97;9.17;;;24.70;68.50;;;;;;4956522;29;20460;-50
2023/06/15 08:22:19;;;;;;;8.60;7.80;;;24.70;71.80;;;;;;4955639;28;20211;-52
2023/06/15 08:24:45;;;;;;;8.87;8.17;;;24.80;69.50;;;;;;4957071;28;20409;-50
2023/06/15 08:27:12;;;;;;;9.00;8.10;;;24.90;70.40;;;;;;4956320;28;20424;-51
2023/06/15 08:29:43;;;;;;;7.70;7.10;;;25.00;68.10;;;;;;4956976;28;20541;-50
2023/06/15 08:32:13;;;;;;;7.50;6.90;;;25.10;66.80;;;;;;4955295;28;20425;-51
2023/06/15 08:34:40;;;;;;;7.10;6.50;;;25.30;69.70;;;;;;4956786;28;20869;-53
2023/06/15 08:37:08;;;;;;;6.93;6.47;;;25.40;65.50;;;;;;4956257;28;20420;-53
2023/06/15 08:39:34;;;;;;;7.70;7.20;;;25.40;65.60;;;;;;4956609;28;20821;-53
2023/06/15 08:42:02;;;;;;;7.87;7.10;;;25.60;69.40;;;;;;4954483;29;20451;-55
2023/06/15 08:44:31;;;;;;;7.33;6.57;;;25.70;66.20;;;;;;4955835;28;20472;-54
2023/06/15 08:47:03;;;;;;;8.13;7.33;;;25.80;68.20;;;;;;4955022;28;20443;-54
2023/06/15 08:49:32;;;;;;;7.73;7.03;;;25.90;67.20;;;;;;4956626;28;20456;-50
2023/06/15 08:51:58;;;;;;;7.60;6.93;;;26.00;69.20;;;;;;4956613;29;20476;-50
2023/06/15 08:54:29;;;;;;;7.70;7.17;;;26.20;68.80;;;;;;4956554;28;20413;-51
2023/06/15 08:56:57;;;;;;;7.50;6.90;;;26.30;66.60;;;;;;4956574;28;20417;-51
2023/06/15 08:59:24;;;;;;;6.63;6.10;;;26.30;66.20;;;;;;4955871;28;20448;-53
2023/06/15 09:01:53;;;;;;;9.57;8.97;;;26.40;64.00;;;;;;4955442;28;20433;-49
2023/06/15 09:04:21;;;;;;;10.13;9.40;;;26.50;63.30;;;;;;4954872;29;20417;-52
2023/06/15 09:06:50;;;;;;;7.87;7.20;;;26.40;60.90;;;;;;4956271;28;20409;-49
2023/06/15 09:09:16;;;;;;;10.10;9.40;;;26.40;62.60;;;;;;4955785;28;20483;-51
2023/06/15 09:11:46;;;;;;;7.17;5.80;;;26.40;63.50;;;;;;4956111;29;20412;-51
2023/06/15 09:14:12;;;;;;;7.30;6.70;;;26.60;62.40;;;;;;4955197;28;20188;-53
2023/06/15 09:16:39;;;;;;;8.23;7.60;;;26.70;63.40;;;;;;4956297;29;20491;-50
2023/06/15 09:19:11;;;;;;;8.47;7.97;;;26.70;63.40;;;;;;4955400;28;20404;-50
2023/06/15 09:21:50;;;;;;;7.80;7.10;;;26.80;63.10;;;;;;4956102;28;20424;-52
2023/06/15 09:24:17;;;;;;;9.30;7.70;;;26.80;62.30;;;;;;4955453;29;20405;-53
2023/06/15 09:26:45;;;;;;;8.97;8.10;;;26.80;60.50;;;;;;4956042;28;20405;-53
2023/06/15 09:29:11;;;;;;;7.80;7.10;;;26.80;60.00;;;;;;4955354;28;20468;-50
2023/06/15 09:31:39;;;;;;;8.37;7.80;;;26.70;60.30;;;;;;4954958;28;20429;-52
2023/06/15 09:34:12;;;;;;;7.80;7.30;;;26.70;59.70;;;;;;4955198;28;20405;-50
2023/06/15 09:36:48;;;;;;;7.73;7.03;;;26.70;58.50;;;;;;4956147;29;20403;-52
2023/06/15 09:39:15;;;;;;;8.13;7.53;;;26.80;60.20;;;;;;4955005;28;20593;-54
2023/06/15 09:42:14;;;;;;;8.30;7.70;;;26.90;60.60;;;;;;4955760;28;20507;-55
2023/06/15 09:44:42;;;;;;;7.70;7.00;;;27.20;64.00;;;;;;4933124;28;20575;-55
2023/06/15 09:47:17;;;;;;;7.50;7.00;;;27.20;60.00;;;;;;4954990;29;20808;-56
2023/06/15 09:49:46;;;;;;;8.73;7.93;;;27.10;57.20;;;;;;4955530;28;20877;-55
2023/06/15 09:52:12;;;;;;;7.07;6.60;;;27.10;56.90;;;;;;4953333;28;20480;-54
2023/06/15 09:54:39;;;;;;;8.40;7.60;;;27.10;56.50;;;;;;4954707;28;20409;-55
2023/06/15 09:57:05;;;;;;;8.20;7.20;;;27.10;57.50;;;;;;4953456;29;20449;-60
2023/06/15 09:59:31;;;;;;;7.33;6.90;;;27.10;57.10;;;;;;4955035;28;20456;-54
2023/06/15 10:02:00;;;;;;;8.00;6.73;;;27.10;57.50;;;;;;4955574;29;20413;-50
2023/06/15 10:04:31;;;;;;;7.33;6.63;;;27.00;57.20;;;;;;4952822;29;20207;-50
2023/06/15 10:07:12;;;;;;;7.23;6.60;;;27.00;57.80;;;;;;4954854;28;20419;-54
2023/06/15 10:09:44;;;;;;;8.23;7.63;;;27.10;57.50;;;;;;4955330;28;20445;-51
2023/06/15 10:12:19;;;;;;;6.67;6.27;;;27.20;55.40;;;;;;4954572;28;20417;-50
2023/06/15 10:15:07;;;;;;;8.97;8.30;;;27.40;56.60;;;;;;4955369;28;20419;-54
2023/06/15 10:17:35;;;;;;;7.23;5.87;;;27.50;56.60;;;;;;4954527;28;20484;-53
2023/06/15 10:20:13;;;;;;;7.60;7.10;;;27.60;56.00;;;;;;4954544;28;20464;-55
2023/06/15 10:22:51;;;;;;;8.03;7.53;;;27.60;54.90;;;;;;4954153;28;20432;-55
2023/06/15 10:25:19;;;;;;;6.60;6.20;;;27.70;56.70;;;;;;4954152;28;20405;-54
2023/06/15 10:27:45;;;;;;;6.80;6.20;;;27.90;57.00;;;;;;4954286;28;20893;-55
2023/06/15 10:30:22;;;;;;;7.03;6.53;;;27.90;53.40;;;;;;4953949;28;20459;-55
2023/06/15 10:33:25;;;;;;;8.10;7.50;;;27.70;50.90;;;;;;4954927;29;20400;-53
2023/06/15 10:36:00;;;;;;;5.93;5.53;;;27.50;50.50;;;;;;4954849;29;20471;-51
2023/06/15 10:38:35;;;;;;;6.40;5.90;;;27.50;54.50;;;;;;4954257;28;20399;-50
2023/06/15 10:41:03;;;;;;;5.57;5.27;;;27.60;54.10;;;;;;4954787;28;20512;-54
2023/06/15 10:43:29;;;;;;;7.03;6.63;;;27.70;53.00;;;;;;4954266;29;20424;-51
2023/06/15 10:45:55;;;;;;;7.00;6.40;;;27.70;53.90;;;;;;4954256;28;20452;-55
2023/06/15 10:48:27;;;;;;;6.03;5.53;;;27.60;53.00;;;;;;4953858;29;20213;-54
2023/06/15 10:51:09;;;;;;;6.70;6.00;;;27.60;54.50;;;;;;4953907;28;20437;-53
2023/06/15 10:53:40;;;;;;;9.70;8.90;;;27.50;54.40;;;;;;4954431;29;20401;-55
2023/06/15 10:56:14;;;;;;;7.07;6.67;;;27.40;51.90;;;;;;4954292;28;20404;-52
2023/06/15 10:58:54;;;;;;;7.40;6.77;;;27.40;54.80;;;;;;4954358;29;20505;-52
2023/06/15 11:01:22;;;;;;;7.40;6.80;;;27.50;56.70;;;;;;4953601;28;20433;-55
2023/06/15 11:03:48;;;;;;;7.37;6.87;;;27.60;56.10;;;;;;4954466;29;20410;-52
2023/06/15 11:06:19;;;;;;;8.97;8.30;;;27.80;55.50;;;;;;4953934;29;20495;-54
2023/06/15 11:08:52;;;;;;;8.10;7.50;;;28.10;55.50;;;;;;4954376;29;20177;-51
2023/06/15 11:11:33;;;;;;;7.97;7.47;;;28.20;55.10;;;;;;4953372;29;20416;-51
2023/06/15 11:14:23;;;;;;;6.60;6.10;;;28.40;52.50;;;;;;4954465;28;20932;-55
2023/06/15 11:17:03;;;;;;;7.23;6.83;;;28.40;52.90;;;;;;4952777;29;20435;-53
2023/06/15 11:19:29;;;;;;;7.27;6.70;;;28.20;49.50;;;;;;4952670;29;20570;-50
2023/06/15 11:22:06;;;;;;;6.83;6.43;;;28.00;50.90;;;;;;4954374;28;20417;-55
2023/06/15 11:24:37;;;;;;;7.30;6.80;;;27.90;51.70;;;;;;4953767;28;20165;-51
2023/06/15 11:27:05;;;;;;;8.27;7.67;;;28.10;53.10;;;;;;4954470;29;20404;-52
2023/06/15 11:29:34;;;;;;;8.67;7.90;;;28.20;54.50;;;;;;4953668;28;20411;-53
2023/06/15 11:32:02;;;;;;;6.90;6.50;;;28.40;53.70;;;;;;4953468;28;20520;-53
2023/06/15 11:34:29;;;;;;;6.00;5.60;;;28.60;53.20;;;;;;4953258;29;20412;-52
2023/06/15 11:36:59;;;;;;;7.00;6.50;;;28.70;48.40;;;;;;4954215;28;20420;-52
2023/06/15 11:39:27;;;;;;;6.73;6.37;;;28.80;48.70;;;;;;4957202;29;20460;-54
2023/06/15 11:41:56;;;;;;;6.97;6.57;;;28.90;47.90;;;;;;4957951;29;20472;-50
2023/06/15 11:44:28;;;;;;;6.10;5.70;;;29.00;49.90;;;;;;4955741;28;20994;-53
2023/06/15 11:46:59;;;;;;;15.07;13.67;;;29.10;50.60;;;;;;4957956;28;20404;-53
2023/06/15 11:49:32;;;;;;;6.90;6.30;;;29.10;47.30;;;;;;4956472;28;20753;-53
2023/06/15 11:51:58;;;;;;;7.20;6.80;;;28.80;45.80;;;;;;4957816;29;20405;-50
2023/06/15 11:54:25;;;;;;;6.93;6.40;;;28.60;48.00;;;;;;4957069;28;20451;-51
2023/06/15 11:56:51;;;;;;;7.33;6.73;;;28.50;48.20;;;;;;4957389;28;20668;-53
2023/06/15 11:59:19;;;;;;;7.20;6.60;;;28.40;49.00;;;;;;4956942;28;20467;-50
2023/06/15 12:01:45;;;;;;;6.40;6.00;;;28.30;50.30;;;;;;4957718;29;20412;-49
2023/06/15 12:04:15;;;;;;;7.90;7.30;;;28.20;48.80;;;;;;4957404;29;20405;-56
2023/06/15 12:06:45;;;;;;;7.40;6.80;;;27.90;50.30;;;;;;4957571;28;20336;-52
2023/06/15 12:09:12;;;;;;;6.20;5.90;;;27.70;50.20;;;;;;4956563;29;20826;-61
2023/06/15 12:11:38;;;;;;;7.57;6.77;;;27.60;51.00;;;;;;4957320;29;20488;-55
2023/06/15 12:14:20;;;;;;;6.50;5.90;;;27.60;52.10;;;;;;4957364;29;20452;-54
2023/06/15 12:16:50;;;;;;;5.00;4.50;;;27.60;50.50;;;;;;4957587;28;20601;-55
2023/06/15 12:19:17;;;;;;;6.70;6.30;;;27.70;51.60;;;;;;4956622;28;20509;-52
2023/06/15 12:21:43;;;;;;;7.70;7.20;;;28.00;51.30;;;;;;4957115;29;20409;-55
2023/06/15 12:24:17;;;;;;;6.47;6.07;;;28.10;48.80;;;;;;4956846;29;20932;-50
2023/06/15 12:26:55;;;;;;;6.63;6.17;;;28.20;50.60;;;;;;4957063;29;20449;-54
2023/06/15 12:29:21;;;;;;;6.43;6.03;;;28.40;47.00;;;;;;4956527;29;20403;-54
2023/06/15 12:31:54;;;;;;;7.50;7.00;;;28.40;47.50;;;;;;4955737;28;20433;-53
2023/06/15 12:34:26;;;;;;;6.70;6.30;;;28.30;49.00;;;;;;4956401;29;20393;-53
2023/06/15 12:36:52;;;;;;;7.67;7.17;;;28.30;48.80;;;;;;4956630;29;20401;-54
2023/06/15 12:39:18;;;;;;;5.67;5.30;;;28.20;48.40;;;;;;4956177;28;20503;-50
2023/06/15 12:41:44;;;;;;;6.70;6.30;;;28.00;45.80;;;;;;4955794;29;20409;-51
2023/06/15 12:44:11;;;;;;;5.90;5.57;;;27.90;49.90;;;;;;4956762;29;20467;-50
2023/06/15 12:46:38;;;;;;;5.80;5.50;;;27.70;47.50;;;;;;4955898;29;20456;-52